Tampa, Florida
Traffic Map
Current Weather Conditions
Tampa, Florida
Broken Clouds
Broken Clouds
26°
Feels Like: 27°
Wind Chill: 26° Ceiling: 8000
Heat Index: 27° Visibility: 10mi
Dew Point: 22° Wind: 12mph
Humidity: 79% Direction: 270° (W)
Pressure: 30.03in Gusts: 0mph
Raw Report DataKTPA 240653Z 27010KT 10SM SCT023 BKN080 BKN120 26/22 A3003 RMK AO2 SLP167 FRQ LTGIC DSNT W-NW CB DSNT W-NW T02560217
Traffic Incident Summary
Active as of:
Severity:
Category:
InformationThere was an issue retrieving the traffic information for this location. Please try a different location or try again shortly.
Advertisements
Track Severe Weather on mobile